createdAt,value
2018-07-08T00:02:14.912Z,4.27
2018-07-08T00:04:45.128Z,3.70
2018-07-08T00:07:15.201Z,3.80
2018-07-08T00:09:45.165Z,4.20
2018-07-08T00:12:15.434Z,4.47
2018-07-08T00:14:45.637Z,4.00
2018-07-08T00:17:16.024Z,4.50
2018-07-08T00:19:46.075Z,4.63
2018-07-08T00:22:16.376Z,4.23
2018-07-08T00:24:46.372Z,4.77
2018-07-08T00:27:16.785Z,4.60
2018-07-08T00:29:47.016Z,4.50
2018-07-08T00:32:21.401Z,5.17
2018-07-08T00:34:51.782Z,5.10
2018-07-08T00:37:22.097Z,5.37
2018-07-08T00:39:52.713Z,5.00
2018-07-08T00:42:23.150Z,5.10
2018-07-08T00:44:53.372Z,5.13
2018-07-08T00:47:23.663Z,5.33
2018-07-08T00:49:53.955Z,5.80
2018-07-08T00:52:24.489Z,5.27
2018-07-08T00:54:55.585Z,5.33
2018-07-08T00:57:25.957Z,6.30
2018-07-08T00:59:56.247Z,6.03
2018-07-08T01:02:26.439Z,5.60
2018-07-08T01:04:56.637Z,5.93
2018-07-08T01:07:26.833Z,6.20
2018-07-08T01:09:57.057Z,5.80
2018-07-08T01:12:27.717Z,5.77
2018-07-08T01:14:57.880Z,6.33
2018-07-08T01:17:28.168Z,5.57
2018-07-08T01:19:58.443Z,6.00
2018-07-08T01:22:28.665Z,6.13
2018-07-08T01:25:17.971Z,6.23
2018-07-08T01:27:47.951Z,6.47
2018-07-08T01:30:17.972Z,5.93
2018-07-08T01:32:48.213Z,5.90
2018-07-08T01:35:18.429Z,5.97
2018-07-08T01:37:48.621Z,6.50
2018-07-08T01:40:18.820Z,6.60
2018-07-08T01:42:48.950Z,5.80
2018-07-08T01:45:19.160Z,6.43
2018-07-08T01:47:49.371Z,6.10
2018-07-08T01:50:23.172Z,5.93
2018-07-08T01:52:55.951Z,5.93
2018-07-08T01:55:26.568Z,5.60
2018-07-08T01:58:02.048Z,6.00
2018-07-08T02:00:32.609Z,5.70
2018-07-08T02:03:02.736Z,5.70
2018-07-08T02:05:32.954Z,6.40
2018-07-08T02:08:03.220Z,5.73
2018-07-08T02:10:33.401Z,5.90
2018-07-08T02:13:03.670Z,6.27
2018-07-08T02:15:33.879Z,5.93
2018-07-08T02:18:04.088Z,5.80
2018-07-08T02:20:34.350Z,6.33
2018-07-08T02:23:04.800Z,6.40
2018-07-08T02:25:34.782Z,8.80
2018-07-08T02:28:05.005Z,7.20
2018-07-08T02:30:35.469Z,7.40
2018-07-08T02:33:05.824Z,7.50
2018-07-08T02:35:36.653Z,8.00
2018-07-08T02:38:06.956Z,7.13
2018-07-08T02:40:37.436Z,7.23
2018-07-08T02:43:07.749Z,6.90
2018-07-08T02:45:37.949Z,6.53
2018-07-08T02:48:08.336Z,6.50
2018-07-08T02:50:39.248Z,6.80
2018-07-08T02:53:09.491Z,6.20
2018-07-08T02:55:39.687Z,6.77
2018-07-08T02:58:09.859Z,6.67
2018-07-08T03:00:40.044Z,6.53
2018-07-08T03:03:10.307Z,6.60
2018-07-08T03:05:46.888Z,6.33
2018-07-08T03:08:17.080Z,6.43
2018-07-08T03:10:47.293Z,6.67
2018-07-08T03:13:17.493Z,6.50
2018-07-08T03:15:47.694Z,6.27
2018-07-08T03:18:17.890Z,6.10
2018-07-08T03:20:48.096Z,6.13
2018-07-08T03:23:18.300Z,5.90
2018-07-08T03:25:48.478Z,6.13
2018-07-08T03:28:18.665Z,5.90
2018-07-08T03:30:48.936Z,6.07
2018-07-08T03:33:19.142Z,5.27
2018-07-08T03:35:49.376Z,5.00
2018-07-08T03:38:19.564Z,5.50
2018-07-08T03:40:50.138Z,5.03
2018-07-08T03:43:20.438Z,5.20
2018-07-08T03:45:50.648Z,4.90
2018-07-08T03:48:20.841Z,4.80
2018-07-08T03:50:51.145Z,4.90
2018-07-08T03:53:21.376Z,4.93
2018-07-08T03:55:51.355Z,4.80
2018-07-08T03:58:21.583Z,4.90
2018-07-08T04:00:51.544Z,5.00
2018-07-08T04:03:21.496Z,4.77
2018-07-08T04:05:51.669Z,4.77
2018-07-08T04:08:22.225Z,5.10
2018-07-08T04:10:52.653Z,5.30
2018-07-08T04:13:22.835Z,5.43
2018-07-08T04:15:53.018Z,5.87
2018-07-08T04:18:23.183Z,5.10
2018-07-08T04:20:53.377Z,5.17
2018-07-08T04:23:23.726Z,4.93
2018-07-08T04:25:53.918Z,4.50
2018-07-08T04:28:24.169Z,5.00
2018-07-08T04:30:54.348Z,4.30
2018-07-08T04:33:24.537Z,4.80
2018-07-08T04:35:54.718Z,5.30
2018-07-08T04:38:24.936Z,5.27
2018-07-08T04:40:55.176Z,5.30
2018-07-08T04:43:25.385Z,4.90
2018-07-08T04:45:55.556Z,4.87
2018-07-08T04:48:25.740Z,6.77
2018-07-08T04:50:56.062Z,5.17
2018-07-08T04:53:26.833Z,5.65
2018-07-08T04:55:57.622Z,4.70
2018-07-08T04:58:28.418Z,5.45
2018-07-08T05:00:59.234Z,5.75
2018-07-08T05:03:30.345Z,5.15
2018-07-08T05:06:01.131Z,4.97
2018-07-08T05:08:31.932Z,5.12
2018-07-08T05:11:02.949Z,4.95
2018-07-08T05:13:33.728Z,5.33
2018-07-08T05:16:04.540Z,4.17
2018-07-08T05:18:35.353Z,3.87
2018-07-08T05:21:06.617Z,4.00
2018-07-08T05:23:37.386Z,3.98
2018-07-08T05:26:07.966Z,10.53
2018-07-08T05:28:38.797Z,11.33
2018-07-08T05:31:09.571Z,12.18
2018-07-08T05:33:40.404Z,14.35
2018-07-08T05:36:11.225Z,10.43
2018-07-08T05:38:42.029Z,10.55
2018-07-08T05:41:12.793Z,13.13
2018-07-08T05:43:43.997Z,14.98
2018-07-08T05:46:14.767Z,10.20
2018-07-08T05:48:45.595Z,11.83
2018-07-08T05:51:16.546Z,13.03
2018-07-08T05:53:47.375Z,9.35
2018-07-08T05:56:18.129Z,7.03
2018-07-08T05:58:48.933Z,6.03
2018-07-08T06:01:19.705Z,5.45
2018-07-08T06:03:50.496Z,2.70
2018-07-08T06:06:21.280Z,2.87
2018-07-08T06:08:51.557Z,2.67
2018-07-08T06:11:22.079Z,2.60
2018-07-08T06:13:52.666Z,2.57
2018-07-08T06:16:23.302Z,2.60
2018-07-08T06:18:53.849Z,2.17
2018-07-08T06:21:24.319Z,2.40
2018-07-08T06:23:54.861Z,3.13
2018-07-08T06:26:25.374Z,2.17
2018-07-08T06:28:56.333Z,2.37
2018-07-08T06:31:26.927Z,2.60
2018-07-08T06:33:57.416Z,2.40
2018-07-08T06:36:27.940Z,2.57
2018-07-08T06:38:58.457Z,2.30
2018-07-08T06:41:28.925Z,2.83
2018-07-08T06:44:00.214Z,2.97
2018-07-08T06:46:30.886Z,2.40
2018-07-08T06:49:01.581Z,2.33
2018-07-08T06:51:32.297Z,2.90
2018-07-08T06:54:02.933Z,2.80
2018-07-08T06:56:33.408Z,2.73
2018-07-08T06:59:04.126Z,2.57
2018-07-08T07:01:35.159Z,2.87
2018-07-08T07:04:06.310Z,2.50
2018-07-08T07:06:36.929Z,2.30
2018-07-08T07:09:09.324Z,2.40
2018-07-08T07:11:40.507Z,2.67
2018-07-08T07:14:10.808Z,2.67
2018-07-08T07:16:41.658Z,2.92
2018-07-08T07:19:12.556Z,3.00
2018-07-08T07:21:43.362Z,2.80
2018-07-08T07:24:14.181Z,2.65
2018-07-08T07:26:45.211Z,2.62
2018-07-08T07:29:15.978Z,2.58
2018-07-08T07:31:46.745Z,2.80
2018-07-08T07:34:17.561Z,3.12
2018-07-08T07:36:48.082Z,2.87
2018-07-08T07:39:18.860Z,3.05
2018-07-08T07:41:49.593Z,2.70
2018-07-08T07:44:20.399Z,2.85
2018-07-08T07:46:51.165Z,2.85
2018-07-08T07:49:21.989Z,2.98
2018-07-08T07:51:52.849Z,2.40
2018-07-08T07:54:23.661Z,3.00
2018-07-08T07:56:54.439Z,3.33
2018-07-08T07:59:25.282Z,2.65
2018-07-08T08:01:56.159Z,3.33
2018-07-08T08:04:28.637Z,3.42
2018-07-08T08:07:03.808Z,2.90
2018-07-08T08:09:35.202Z,2.75
2018-07-08T08:12:05.981Z,3.10
2018-07-08T08:14:36.796Z,2.90
2018-07-08T08:17:07.757Z,2.62
2018-07-08T08:19:38.541Z,2.67
2018-07-08T08:22:09.310Z,2.72
2018-07-08T08:24:40.082Z,2.58
2018-07-08T08:27:10.882Z,2.80
2018-07-08T08:29:41.685Z,2.83
2018-07-08T08:32:12.547Z,2.83
2018-07-08T08:34:58.536Z,2.77
2018-07-08T08:37:31.285Z,2.60
2018-07-08T08:40:02.665Z,2.45
2018-07-08T08:42:33.451Z,3.00
2018-07-08T08:45:04.394Z,2.60
2018-07-08T08:47:35.258Z,2.75
2018-07-08T08:50:06.729Z,2.70
2018-07-08T08:52:37.635Z,2.70
2018-07-08T08:55:09.153Z,3.10
2018-07-08T08:57:39.985Z,2.90
2018-07-08T09:00:13.080Z,2.25
2018-07-08T09:02:43.989Z,2.80
2018-07-08T09:05:15.464Z,2.50
2018-07-08T09:07:45.997Z,3.07
2018-07-08T09:10:16.553Z,2.57
2018-07-08T09:12:47.069Z,2.40
2018-07-08T09:15:17.585Z,2.53
2018-07-08T09:17:48.100Z,1.97
2018-07-08T09:20:19.037Z,2.30
2018-07-08T09:22:49.820Z,2.10
2018-07-08T09:25:21.090Z,2.30
2018-07-08T09:27:51.828Z,2.15
2018-07-08T09:30:23.123Z,2.20
2018-07-08T09:32:53.897Z,2.10
2018-07-08T09:35:24.746Z,2.52
2018-07-08T09:37:55.497Z,1.92
2018-07-08T09:40:26.541Z,2.02
2018-07-08T09:42:57.361Z,2.30
2018-07-08T09:45:28.452Z,2.15
2018-07-08T09:47:59.301Z,2.15
2018-07-08T09:50:30.855Z,2.10
2018-07-08T09:53:02.504Z,2.40
2018-07-08T09:55:33.313Z,1.95
2018-07-08T09:58:04.424Z,1.92
2018-07-08T10:00:37.661Z,2.22
2018-07-08T10:03:09.139Z,2.05
2018-07-08T10:05:39.987Z,2.10
2018-07-08T10:08:10.757Z,2.22
2018-07-08T10:10:41.563Z,2.08
2018-07-08T10:13:12.373Z,1.95
2018-07-08T10:15:43.273Z,2.20
2018-07-08T10:18:14.113Z,2.40
2018-07-08T10:20:44.943Z,2.70
2018-07-08T10:23:15.826Z,2.30
2018-07-08T10:25:47.580Z,2.37
2018-07-08T10:31:00.031Z,2.15
2018-07-08T10:34:07.580Z,2.47
2018-07-08T10:36:38.455Z,2.20
2018-07-08T10:39:11.774Z,2.50
2018-07-08T10:41:43.880Z,2.95
2018-07-08T10:44:14.765Z,2.42
2018-07-08T10:46:45.560Z,2.65
2018-07-08T10:49:16.379Z,3.08
2018-07-08T10:51:47.232Z,3.42
2018-07-08T10:54:18.146Z,2.92
2018-07-08T10:56:49.154Z,2.92
2018-07-08T10:59:20.071Z,3.30
2018-07-08T11:01:50.920Z,3.20
2018-07-08T11:04:22.009Z,3.00
2018-07-08T11:06:52.865Z,2.90
2018-07-08T11:09:23.837Z,3.15
2018-07-08T11:11:54.661Z,3.27
2018-07-08T11:14:25.429Z,3.17
2018-07-08T11:16:56.328Z,2.70
2018-07-08T11:19:27.113Z,3.08
2018-07-08T11:21:57.907Z,4.22
2018-07-08T11:24:28.717Z,6.45
2018-07-08T11:26:59.621Z,6.62
2018-07-08T11:29:30.385Z,11.63
2018-07-08T11:32:01.207Z,7.72
2018-07-08T11:34:31.972Z,9.10
2018-07-08T11:37:02.789Z,7.05
2018-07-08T11:39:33.526Z,8.10
2018-07-08T11:42:04.964Z,5.03
2018-07-08T11:44:35.716Z,6.30
2018-07-08T11:47:06.686Z,3.85
2018-07-08T11:49:37.517Z,5.58
2018-07-08T11:52:08.345Z,4.65
2018-07-08T11:54:39.234Z,6.75
2018-07-08T11:57:10.096Z,6.22
2018-07-08T11:59:40.858Z,5.78
2018-07-08T12:02:11.653Z,5.83
2018-07-08T12:04:42.413Z,6.20
2018-07-08T12:07:13.216Z,5.90
2018-07-08T12:09:43.985Z,5.25
2018-07-08T12:12:14.781Z,6.15
2018-07-08T12:14:45.617Z,5.60
2018-07-08T12:17:16.442Z,5.85
2018-07-08T12:19:47.276Z,5.10
2018-07-08T12:22:18.089Z,5.87
2018-07-08T12:24:48.931Z,5.70
2018-07-08T12:27:19.720Z,6.22
2018-07-08T12:29:50.541Z,6.37
2018-07-08T12:32:21.340Z,4.28
2018-07-08T12:34:52.105Z,4.20
2018-07-08T12:37:22.963Z,5.08
2018-07-08T12:39:53.738Z,5.45
2018-07-08T12:42:24.582Z,6.25
2018-07-08T12:44:55.405Z,5.17
2018-07-08T12:47:26.622Z,6.05
2018-07-08T12:49:57.436Z,5.85
2018-07-08T12:52:28.290Z,5.35
2018-07-08T12:54:59.096Z,4.40
2018-07-08T12:57:29.967Z,7.33
2018-07-08T13:00:01.106Z,9.93
2018-07-08T13:02:31.998Z,7.33
2018-07-08T13:05:03.669Z,20.02
2018-07-08T13:07:34.485Z,11.10
2018-07-08T13:10:05.359Z,9.63
2018-07-08T13:12:36.209Z,12.55
2018-07-08T13:15:07.089Z,11.78
2018-07-08T13:17:37.877Z,9.53
2018-07-08T13:20:09.010Z,12.43
2018-07-08T13:22:39.829Z,9.95
2018-07-08T13:25:10.673Z,11.85
2018-07-08T13:27:41.966Z,13.03
2018-07-08T13:30:13.876Z,13.15
2018-07-08T13:32:45.453Z,10.15
2018-07-08T13:35:16.325Z,8.15
2018-07-08T13:37:47.278Z,9.33
2018-07-08T13:40:18.158Z,12.43
2018-07-08T13:42:49.259Z,12.20
2018-07-08T13:45:20.160Z,10.72
2018-07-08T13:47:50.998Z,10.93
2018-07-08T13:50:21.880Z,12.05
2018-07-08T13:52:52.914Z,15.53
2018-07-08T13:55:23.950Z,17.98
2018-07-08T13:57:55.282Z,17.35
2018-07-08T14:00:26.121Z,11.28
2018-07-08T14:02:56.960Z,7.97
2018-07-08T14:05:27.757Z,8.05
2018-07-08T14:07:58.616Z,6.47
2018-07-08T14:10:29.386Z,7.08
2018-07-08T14:13:00.217Z,7.40
2018-07-08T14:15:30.966Z,7.12
2018-07-08T14:18:01.802Z,7.70
2018-07-08T14:20:32.646Z,6.65
2018-07-08T14:23:03.701Z,10.10
2018-07-08T14:25:34.474Z,5.67
2018-07-08T14:28:05.879Z,6.28
2018-07-08T14:30:36.774Z,6.47
2018-07-08T14:33:08.258Z,7.65
2018-07-08T14:35:39.181Z,9.23
2018-07-08T14:38:10.505Z,9.48
2018-07-08T14:40:41.280Z,7.12
2018-07-08T14:43:12.113Z,7.80
2018-07-08T14:45:42.880Z,8.73
2018-07-08T14:48:13.844Z,11.95
2018-07-08T14:50:44.675Z,9.78
2018-07-08T14:53:15.613Z,9.23
2018-07-08T14:55:46.777Z,8.23
2018-07-08T14:58:17.602Z,7.72
2018-07-08T15:00:48.740Z,9.25
2018-07-08T15:03:19.594Z,8.08
2018-07-08T15:05:50.377Z,8.88
2018-07-08T15:08:21.200Z,9.20
2018-07-08T15:10:52.233Z,9.90
2018-07-08T15:13:23.074Z,8.48
2018-07-08T15:15:53.702Z,11.00
2018-07-08T15:18:24.725Z,11.50
2018-07-08T15:20:55.553Z,11.05
2018-07-08T15:23:26.383Z,13.45
2018-07-08T15:25:57.177Z,10.45
2018-07-08T15:28:28.042Z,12.45
2018-07-08T15:30:58.836Z,10.53
2018-07-08T15:33:29.702Z,9.03
2018-07-08T15:36:00.526Z,8.93
2018-07-08T15:38:31.390Z,9.33
2018-07-08T15:41:02.242Z,7.20
2018-07-08T15:43:33.877Z,7.90
2018-07-08T15:46:04.673Z,9.43
2018-07-08T15:48:35.460Z,9.03
2018-07-08T15:51:06.596Z,10.40
2018-07-08T15:53:37.501Z,12.10
2018-07-08T15:56:08.488Z,9.75
2018-07-08T15:58:39.308Z,10.13
2018-07-08T16:01:10.143Z,12.00
2018-07-08T16:03:40.973Z,9.23
2018-07-08T16:06:11.774Z,9.20
2018-07-08T16:08:42.662Z,7.12
2018-07-08T16:11:13.441Z,6.72
2018-07-08T16:13:44.396Z,6.53
2018-07-08T16:16:15.178Z,7.72
2018-07-08T16:18:46.057Z,7.50
2018-07-08T16:21:17.114Z,7.92
2018-07-08T16:23:48.198Z,7.50
2018-07-08T16:26:18.962Z,7.47
2018-07-08T16:28:51.850Z,6.87
2018-07-08T16:31:22.709Z,7.08
2018-07-08T16:33:53.570Z,7.03
2018-07-08T16:36:24.415Z,6.55
2018-07-08T16:38:55.634Z,6.70
2018-07-08T16:41:26.564Z,7.47
2018-07-08T16:43:57.481Z,7.42
2018-07-08T16:46:28.291Z,8.10
2018-07-08T16:48:59.142Z,7.08
2018-07-08T16:51:29.906Z,6.72
2018-07-08T16:54:00.778Z,7.62
2018-07-08T16:56:31.695Z,7.45
2018-07-08T16:59:02.560Z,6.97
2018-07-08T17:01:33.440Z,7.25
2018-07-08T17:04:04.257Z,6.58
2018-07-08T17:06:35.073Z,8.18
2018-07-08T17:09:07.685Z,8.45
2018-07-08T17:11:38.863Z,6.55
2018-07-08T17:14:09.685Z,7.05
2018-07-08T17:16:40.473Z,7.35
2018-07-08T17:19:11.301Z,6.87
2018-07-08T17:21:42.062Z,7.53
2018-07-08T17:24:12.882Z,9.35
2018-07-08T17:26:43.654Z,7.85
2018-07-08T17:29:14.457Z,8.03
2018-07-08T17:31:45.346Z,9.60
2018-07-08T17:34:16.271Z,10.38
2018-07-08T17:36:47.023Z,10.63
2018-07-08T17:39:17.792Z,9.13
2018-07-08T17:41:55.312Z,10.68
2018-07-08T17:44:26.546Z,9.90
2018-07-08T17:46:57.345Z,10.63
2018-07-08T17:49:28.549Z,10.08
2018-07-08T17:51:59.366Z,9.55
2018-07-08T17:54:29.985Z,10.10
2018-07-08T17:57:00.850Z,9.25
2018-07-08T17:59:31.721Z,9.85
2018-07-08T18:02:02.522Z,11.03
2018-07-08T18:04:33.329Z,14.03
2018-07-08T18:07:04.157Z,10.10
2018-07-08T18:09:34.955Z,8.38
2018-07-08T18:12:05.778Z,8.08
2018-07-08T18:14:36.468Z,8.33
2018-07-08T18:17:07.793Z,9.60
2018-07-08T18:19:38.629Z,11.20
2018-07-08T18:22:09.451Z,16.97
2018-07-08T18:24:40.292Z,16.60
2018-07-08T18:27:11.135Z,12.95
2018-07-08T18:29:41.965Z,7.47
2018-07-08T18:32:12.821Z,6.37
2018-07-08T18:34:43.677Z,5.97
2018-07-08T18:37:14.453Z,5.95
2018-07-08T18:39:45.700Z,6.40
2018-07-08T18:42:16.449Z,6.92
2018-07-08T18:44:47.318Z,5.87
2018-07-08T18:47:18.222Z,5.58
2018-07-08T18:49:49.014Z,5.58
2018-07-08T18:52:19.876Z,6.78
2018-07-08T18:54:50.703Z,7.42
2018-07-08T18:57:21.617Z,7.12
2018-07-08T18:59:51.870Z,6.70
2018-07-08T19:02:22.741Z,7.78
2018-07-08T19:04:52.961Z,7.10
2018-07-08T19:07:23.719Z,6.95
2018-07-08T19:09:54.534Z,7.85
2018-07-08T19:12:24.758Z,7.57
2018-07-08T19:14:55.316Z,5.70
2018-07-08T19:17:25.585Z,6.30
2018-07-08T19:19:55.781Z,4.67
2018-07-08T19:22:26.150Z,4.97
2018-07-08T19:24:56.721Z,4.70
2018-07-08T19:27:27.621Z,5.25
2018-07-08T19:29:58.425Z,4.72
2018-07-08T19:32:29.450Z,5.50
2018-07-08T19:35:00.661Z,5.25
2018-07-08T19:37:31.546Z,4.80
2018-07-08T19:40:02.409Z,4.70
2018-07-08T19:42:33.248Z,4.92
2018-07-08T19:45:04.484Z,4.08
2018-07-08T19:47:35.516Z,4.47
2018-07-08T19:50:06.613Z,5.60
2018-07-08T19:52:38.116Z,5.47
2018-07-08T19:55:09.169Z,5.60
2018-07-08T19:57:40.213Z,5.58
2018-07-08T20:00:11.058Z,4.72
2018-07-08T20:02:42.003Z,4.90
2018-07-08T20:05:12.805Z,5.35
2018-07-08T20:07:47.985Z,5.75
2018-07-08T20:10:18.973Z,5.40
2018-07-08T20:12:49.863Z,4.85
2018-07-08T20:15:20.433Z,4.73
2018-07-08T20:17:50.717Z,4.87
2018-07-08T20:20:21.517Z,4.53
2018-07-08T20:22:51.776Z,5.00
2018-07-08T20:25:21.977Z,4.47
2018-07-08T20:27:52.031Z,4.23
2018-07-08T20:30:22.251Z,4.43
2018-07-08T20:32:52.482Z,4.93
2018-07-08T20:35:22.776Z,4.93
2018-07-08T20:37:53.662Z,4.45
2018-07-08T20:40:23.856Z,4.30
2018-07-08T20:42:54.211Z,4.70
2018-07-08T20:45:24.441Z,5.00
2018-07-08T20:47:54.997Z,4.40
2018-07-08T20:50:25.254Z,4.57
2018-07-08T20:52:55.483Z,4.70
2018-07-08T20:55:25.776Z,4.87
2018-07-08T20:57:56.150Z,4.60
2018-07-08T21:00:26.362Z,4.80
2018-07-08T21:02:56.626Z,4.53
2018-07-08T21:05:26.969Z,5.00
2018-07-08T21:07:57.209Z,4.97
2018-07-08T21:10:27.448Z,4.77
2018-07-08T21:12:57.673Z,5.70
2018-07-08T21:15:27.910Z,5.27
2018-07-08T21:17:58.225Z,5.17
2018-07-08T21:20:28.475Z,5.53
2018-07-08T21:22:59.110Z,5.00
2018-07-08T21:25:29.381Z,5.00
2018-07-08T21:27:59.700Z,5.63
2018-07-08T21:30:30.057Z,4.90
2018-07-08T21:33:00.665Z,4.97
2018-07-08T21:35:30.921Z,4.60
2018-07-08T21:38:01.821Z,4.67
2018-07-08T21:40:32.098Z,5.20
2018-07-08T21:43:02.349Z,4.77
2018-07-08T21:45:32.605Z,5.00
2018-07-08T21:48:02.819Z,5.23
2018-07-08T21:50:33.061Z,5.80
2018-07-08T21:53:03.258Z,6.37
2018-07-08T21:55:33.480Z,6.03
2018-07-08T21:58:03.907Z,5.93
2018-07-08T22:00:34.338Z,5.93
2018-07-08T22:03:04.543Z,7.07
2018-07-08T22:05:34.547Z,7.00
2018-07-08T22:08:05.679Z,6.40
2018-07-08T22:10:35.891Z,6.90
2018-07-08T22:13:06.113Z,6.60
2018-07-08T22:15:36.315Z,8.00
2018-07-08T22:18:06.581Z,6.60
2018-07-08T22:20:36.935Z,6.03
2018-07-08T22:23:07.147Z,6.70
2018-07-08T22:25:37.441Z,6.20
2018-07-08T22:28:07.709Z,6.83
2018-07-08T22:30:37.951Z,6.47
2018-07-08T22:33:08.079Z,5.87
2018-07-08T22:35:38.559Z,5.50
2018-07-08T22:38:08.824Z,5.30
2018-07-08T22:40:39.122Z,6.40
2018-07-08T22:43:09.457Z,5.17
2018-07-08T22:45:39.642Z,6.27
2018-07-08T22:48:09.867Z,5.87
2018-07-08T22:50:40.052Z,6.30
2018-07-08T22:53:10.272Z,6.57
2018-07-08T22:55:40.523Z,7.07
2018-07-08T22:58:10.917Z,6.60
2018-07-08T23:00:52.254Z,6.50
2018-07-08T23:03:47.784Z,7.40
2018-07-08T23:06:19.066Z,7.43
2018-07-08T23:08:50.045Z,7.07
2018-07-08T23:11:21.119Z,7.07
2018-07-08T23:13:52.279Z,6.87
2018-07-08T23:16:23.109Z,7.07
2018-07-08T23:18:53.669Z,7.57
2018-07-08T23:21:23.958Z,7.20
2018-07-08T23:23:54.215Z,6.43
2018-07-08T23:26:24.425Z,6.87
2018-07-08T23:28:54.686Z,7.23
2018-07-08T23:31:24.874Z,6.37
2018-07-08T23:33:55.069Z,7.37
2018-07-08T23:36:25.311Z,6.53
2018-07-08T23:38:55.560Z,6.63
2018-07-08T23:41:25.782Z,5.83
2018-07-08T23:43:56.018Z,6.13
2018-07-08T23:46:26.324Z,6.30
2018-07-08T23:48:56.325Z,5.93
2018-07-08T23:51:26.489Z,5.30
2018-07-08T23:53:56.716Z,5.90
2018-07-08T23:56:27.304Z,5.60
2018-07-08T23:58:57.670Z,5.80
